sensor_id;sensor_type;location;lat;lon;timestamp;temperature;humidity
55329;DHT22;41205;44.264;19.884;2023-11-21T00:00:01;205.00;2252.80
55329;DHT22;41205;44.264;19.884;2023-11-21T00:02:48;205.10;2252.80
55329;DHT22;41205;44.264;19.884;2023-11-21T00:05:14;205.20;2252.80
55329;DHT22;41205;44.264;19.884;2023-11-21T00:07:43;205.10;2252.80
55329;DHT22;41205;44.264;19.884;2023-11-21T00:10:10;204.90;2252.80
55329;DHT22;41205;44.264;19.884;2023-11-21T00:12:36;180.10;2252.80
55329;DHT22;41205;44.264;19.884;2023-11-21T00:15:03;204.90;2252.80
55329;DHT22;41205;44.264;19.884;2023-11-21T00:17:43;204.90;2252.80
55329;DHT22;41205;44.264;19.884;2023-11-21T00:20:12;205.00;2252.80
55329;DHT22;41205;44.264;19.884;2023-11-21T00:22:39;205.00;2252.80
55329;DHT22;41205;44.264;19.884;2023-11-21T00:25:06;205.20;2252.80
55329;DHT22;41205;44.264;19.884;2023-11-21T00:27:37;205.10;2252.80
55329;DHT22;41205;44.264;19.884;2023-11-21T00:30:03;205.10;2252.80
55329;DHT22;41205;44.264;19.884;2023-11-21T00:32:35;205.20;2252.80
55329;DHT22;41205;44.264;19.884;2023-11-21T00:35:01;205.30;2252.80
55329;DHT22;41205;44.264;19.884;2023-11-21T00:37:27;205.30;2252.80
55329;DHT22;41205;44.264;19.884;2023-11-21T00:39:53;205.40;2252.80
55329;DHT22;41205;44.264;19.884;2023-11-21T00:42:18;205.40;2252.80
55329;DHT22;41205;44.264;19.884;2023-11-21T00:44:44;205.40;2252.80
55329;DHT22;41205;44.264;19.884;2023-11-21T00:47:10;205.50;2252.80
55329;DHT22;41205;44.264;19.884;2023-11-21T00:49:35;205.40;2252.80
55329;DHT22;41205;44.264;19.884;2023-11-21T00:52:01;205.20;2252.80
55329;DHT22;41205;44.264;19.884;2023-11-21T00:54:28;205.30;2252.80
55329;DHT22;41205;44.264;19.884;2023-11-21T00:56:53;205.10;2252.80
55329;DHT22;41205;44.264;19.884;2023-11-21T00:59:19;205.10;2252.80
55329;DHT22;41205;44.264;19.884;2023-11-21T01:01:45;205.20;2252.80
55329;DHT22;41205;44.264;19.884;2023-11-21T01:04:11;205.20;2252.80
55329;DHT22;41205;44.264;19.884;2023-11-21T01:06:36;205.20;2252.80
55329;DHT22;41205;44.264;19.884;2023-11-21T01:09:02;205.40;2252.80
55329;DHT22;41205;44.264;19.884;2023-11-21T01:11:36;205.40;2252.80
55329;DHT22;41205;44.264;19.884;2023-11-21T01:14:03;205.40;2252.80
55329;DHT22;41205;44.264;19.884;2023-11-21T01:16:29;205.40;2252.80
55329;DHT22;41205;44.264;19.884;2023-11-21T01:18:56;205.40;2252.80
55329;DHT22;41205;44.264;19.884;2023-11-21T01:21:22;205.40;2252.80
55329;DHT22;41205;44.264;19.884;2023-11-21T01:23:48;205.30;2252.80
55329;DHT22;41205;44.264;19.884;2023-11-21T01:26:14;205.30;2252.80
55329;DHT22;41205;44.264;19.884;2023-11-21T01:28:39;205.20;2252.80
55329;DHT22;41205;44.264;19.884;2023-11-21T01:31:05;205.30;2252.80
55329;DHT22;41205;44.264;19.884;2023-11-21T01:33:32;205.20;2252.80
55329;DHT22;41205;44.264;19.884;2023-11-21T01:35:58;205.20;2252.80
55329;DHT22;41205;44.264;19.884;2023-11-21T01:38:25;205.20;2252.80
55329;DHT22;41205;44.264;19.884;2023-11-21T01:40:51;205.20;2252.80
55329;DHT22;41205;44.264;19.884;2023-11-21T01:43:17;205.30;2252.80
55329;DHT22;41205;44.264;19.884;2023-11-21T01:45:42;205.30;2252.80
55329;DHT22;41205;44.264;19.884;2023-11-21T01:48:10;205.20;2252.80
55329;DHT22;41205;44.264;19.884;2023-11-21T01:50:36;205.20;2252.80
55329;DHT22;41205;44.264;19.884;2023-11-21T01:53:02;205.20;2252.80
55329;DHT22;41205;44.264;19.884;2023-11-21T01:55:29;205.30;2252.80
55329;DHT22;41205;44.264;19.884;2023-11-21T01:57:56;205.30;2252.80
55329;DHT22;41205;44.264;19.884;2023-11-21T02:00:22;205.20;2252.80
55329;DHT22;41205;44.264;19.884;2023-11-21T02:02:49;205.20;2252.80
55329;DHT22;41205;44.264;19.884;2023-11-21T02:05:16;205.20;2252.80
55329;DHT22;41205;44.264;19.884;2023-11-21T02:07:46;205.10;2252.80
55329;DHT22;41205;44.264;19.884;2023-11-21T02:10:15;205.10;2252.80
55329;DHT22;41205;44.264;19.884;2023-11-21T02:12:42;205.10;2252.80
55329;DHT22;41205;44.264;19.884;2023-11-21T02:15:12;205.10;2252.80
55329;DHT22;41205;44.264;19.884;2023-11-21T02:17:42;205.00;2252.80
55329;DHT22;41205;44.264;19.884;2023-11-21T02:20:13;205.10;2252.80
55329;DHT22;41205;44.264;19.884;2023-11-21T02:22:43;205.00;2252.80
55329;DHT22;41205;44.264;19.884;2023-11-21T02:25:10;204.90;2252.80
55329;DHT22;41205;44.264;19.884;2023-11-21T02:27:36;204.90;2252.80
55329;DHT22;41205;44.264;19.884;2023-11-21T02:30:03;204.90;2252.80
55329;DHT22;41205;44.264;19.884;2023-11-21T02:32:30;204.90;2252.80
55329;DHT22;41205;44.264;19.884;2023-11-21T02:34:57;204.90;2252.80
55329;DHT22;41205;44.264;19.884;2023-11-21T02:37:26;205.00;2252.80
55329;DHT22;41205;44.264;19.884;2023-11-21T02:39:52;205.10;2252.80
55329;DHT22;41205;44.264;19.884;2023-11-21T02:42:18;205.10;2252.80
55329;DHT22;41205;44.264;19.884;2023-11-21T02:44:44;205.10;2252.80
55329;DHT22;41205;44.264;19.884;2023-11-21T02:47:10;205.10;2252.80
55329;DHT22;41205;44.264;19.884;2023-11-21T02:49:35;205.20;2252.80
55329;DHT22;41205;44.264;19.884;2023-11-21T02:52:01;205.20;2252.80
55329;DHT22;41205;44.264;19.884;2023-11-21T02:54:27;205.20;2252.80
55329;DHT22;41205;44.264;19.884;2023-11-21T02:56:53;205.20;2252.80
55329;DHT22;41205;44.264;19.884;2023-11-21T02:59:18;205.30;2252.80
55329;DHT22;41205;44.264;19.884;2023-11-21T03:01:45;205.40;2252.80
55329;DHT22;41205;44.264;19.884;2023-11-21T03:04:12;205.40;2252.80
55329;DHT22;41205;44.264;19.884;2023-11-21T03:06:43;205.40;2252.80
55329;DHT22;41205;44.264;19.884;2023-11-21T03:09:10;205.50;2252.80
55329;DHT22;41205;44.264;19.884;2023-11-21T03:11:37;205.40;2252.80
55329;DHT22;41205;44.264;19.884;2023-11-21T03:14:03;205.40;2252.80
55329;DHT22;41205;44.264;19.884;2023-11-21T03:16:29;205.40;2252.80
55329;DHT22;41205;44.264;19.884;2023-11-21T03:18:54;205.50;2252.80
55329;DHT22;41205;44.264;19.884;2023-11-21T03:21:20;205.40;2252.80
55329;DHT22;41205;44.264;19.884;2023-11-21T03:23:46;205.50;2252.80
55329;DHT22;41205;44.264;19.884;2023-11-21T03:26:12;205.50;2252.80
55329;DHT22;41205;44.264;19.884;2023-11-21T03:28:38;205.50;2252.80
55329;DHT22;41205;44.264;19.884;2023-11-21T03:31:04;205.50;2252.80
55329;DHT22;41205;44.264;19.884;2023-11-21T03:33:32;205.50;2252.80
55329;DHT22;41205;44.264;19.884;2023-11-21T03:35:58;205.50;2252.80
55329;DHT22;41205;44.264;19.884;2023-11-21T03:38:23;205.50;2252.80
55329;DHT22;41205;44.264;19.884;2023-11-21T03:40:49;205.60;2252.80
55329;DHT22;41205;44.264;19.884;2023-11-21T03:43:16;205.60;2252.80
55329;DHT22;41205;44.264;19.884;2023-11-21T03:45:41;205.70;2252.80
55329;DHT22;41205;44.264;19.884;2023-11-21T03:48:08;205.70;2252.80
55329;DHT22;41205;44.264;19.884;2023-11-21T03:50:34;205.70;2252.80
55329;DHT22;41205;44.264;19.884;2023-11-21T03:53:00;205.70;2252.80
55329;DHT22;41205;44.264;19.884;2023-11-21T03:55:26;205.60;2252.80
55329;DHT22;41205;44.264;19.884;2023-11-21T03:57:52;205.60;2252.80
55329;DHT22;41205;44.264;19.884;2023-11-21T04:00:18;205.40;2252.80
55329;DHT22;41205;44.264;19.884;2023-11-21T04:02:45;205.40;2252.80
55329;DHT22;41205;44.264;19.884;2023-11-21T04:05:11;205.40;2252.80
55329;DHT22;41205;44.264;19.884;2023-11-21T04:07:37;205.40;2252.80
55329;DHT22;41205;44.264;19.884;2023-11-21T04:10:07;205.60;2252.80
55329;DHT22;41205;44.264;19.884;2023-11-21T04:12:38;205.60;2252.80
55329;DHT22;41205;44.264;19.884;2023-11-21T04:15:04;205.60;2252.80
55329;DHT22;41205;44.264;19.884;2023-11-21T04:17:30;205.70;2252.80
55329;DHT22;41205;44.264;19.884;2023-11-21T04:19:56;205.70;2252.80
55329;DHT22;41205;44.264;19.884;2023-11-21T04:22:22;205.70;2252.80
55329;DHT22;41205;44.264;19.884;2023-11-21T04:24:47;205.70;2252.80
55329;DHT22;41205;44.264;19.884;2023-11-21T04:27:14;230.40;2252.80
55329;DHT22;41205;44.264;19.884;2023-11-21T04:29:40;230.40;2252.80
55329;DHT22;41205;44.264;19.884;2023-11-21T04:32:06;230.40;2252.80
55329;DHT22;41205;44.264;19.884;2023-11-21T04:34:33;230.40;2252.80
55329;DHT22;41205;44.264;19.884;2023-11-21T04:37:00;205.70;2252.80
55329;DHT22;41205;44.264;19.884;2023-11-21T04:39:26;205.70;2252.80
55329;DHT22;41205;44.264;19.884;2023-11-21T04:41:51;205.70;2252.80
55329;DHT22;41205;44.264;19.884;2023-11-21T04:44:17;205.60;2252.80
55329;DHT22;41205;44.264;19.884;2023-11-21T04:46:43;205.60;2252.80
55329;DHT22;41205;44.264;19.884;2023-11-21T04:49:09;205.60;2252.80
55329;DHT22;41205;44.264;19.884;2023-11-21T04:51:34;205.60;2252.80
55329;DHT22;41205;44.264;19.884;2023-11-21T04:54:00;205.60;2252.80
55329;DHT22;41205;44.264;19.884;2023-11-21T04:56:26;205.70;2252.80
55329;DHT22;41205;44.264;19.884;2023-11-21T04:58:52;205.70;2252.80
55329;DHT22;41205;44.264;19.884;2023-11-21T05:01:18;230.40;2252.80
55329;DHT22;41205;44.264;19.884;2023-11-21T05:03:44;230.60;2252.80
55329;DHT22;41205;44.264;19.884;2023-11-21T05:06:10;230.60;2252.80
55329;DHT22;41205;44.264;19.884;2023-11-21T05:08:36;230.60;2252.80
55329;DHT22;41205;44.264;19.884;2023-11-21T05:11:03;230.60;2252.80
55329;DHT22;41205;44.264;19.884;2023-11-21T05:13:28;230.50;2252.80
55329;DHT22;41205;44.264;19.884;2023-11-21T05:15:55;230.50;2252.80
55329;DHT22;41205;44.264;19.884;2023-11-21T05:18:23;230.60;2252.80
55329;DHT22;41205;44.264;19.884;2023-11-21T05:20:52;230.50;2252.80
55329;DHT22;41205;44.264;19.884;2023-11-21T05:23:19;230.40;2252.80
55329;DHT22;41205;44.264;19.884;2023-11-21T05:25:45;230.40;2252.80
55329;DHT22;41205;44.264;19.884;2023-11-21T05:28:12;205.60;2252.80
55329;DHT22;41205;44.264;19.884;2023-11-21T05:30:37;205.60;2252.80
55329;DHT22;41205;44.264;19.884;2023-11-21T05:33:05;205.60;2252.80
55329;DHT22;41205;44.264;19.884;2023-11-21T05:35:30;205.50;2252.80
55329;DHT22;41205;44.264;19.884;2023-11-21T05:37:56;205.60;2252.80
55329;DHT22;41205;44.264;19.884;2023-11-21T05:40:22;205.60;2252.80
55329;DHT22;41205;44.264;19.884;2023-11-21T05:42:49;205.60;2252.80
55329;DHT22;41205;44.264;19.884;2023-11-21T05:45:16;205.70;2252.80
55329;DHT22;41205;44.264;19.884;2023-11-21T05:47:45;205.60;2252.80
55329;DHT22;41205;44.264;19.884;2023-11-21T05:50:15;205.70;2252.80
55329;DHT22;41205;44.264;19.884;2023-11-21T05:52:45;205.70;2252.80
55329;DHT22;41205;44.264;19.884;2023-11-21T05:55:12;205.50;2252.80
55329;DHT22;41205;44.264;19.884;2023-11-21T05:57:39;205.60;2252.80
55329;DHT22;41205;44.264;19.884;2023-11-21T06:00:13;205.60;2252.80
55329;DHT22;41205;44.264;19.884;2023-11-21T06:02:52;205.50;2252.80
55329;DHT22;41205;44.264;19.884;2023-11-21T06:05:25;205.60;2252.80
55329;DHT22;41205;44.264;19.884;2023-11-21T06:07:55;205.60;2252.80
55329;DHT22;41205;44.264;19.884;2023-11-21T06:10:24;205.70;2252.80
55329;DHT22;41205;44.264;19.884;2023-11-21T06:12:50;205.60;2252.80
55329;DHT22;41205;44.264;19.884;2023-11-21T06:15:16;230.40;2252.80
55329;DHT22;41205;44.264;19.884;2023-11-21T06:17:44;230.40;2252.80
55329;DHT22;41205;44.264;19.884;2023-11-21T06:20:11;230.50;2252.80
55329;DHT22;41205;44.264;19.884;2023-11-21T06:22:40;230.40;2252.80
55329;DHT22;41205;44.264;19.884;2023-11-21T06:25:07;230.50;2252.80
55329;DHT22;41205;44.264;19.884;2023-11-21T06:27:39;230.50;2252.80
55329;DHT22;41205;44.264;19.884;2023-11-21T06:30:05;230.60;2252.80
55329;DHT22;41205;44.264;19.884;2023-11-21T06:32:32;230.60;2252.80
55329;DHT22;41205;44.264;19.884;2023-11-21T06:34:58;230.70;2252.80
55329;DHT22;41205;44.264;19.884;2023-11-21T06:37:28;230.70;2252.80
55329;DHT22;41205;44.264;19.884;2023-11-21T06:39:56;230.80;2252.80
55329;DHT22;41205;44.264;19.884;2023-11-21T06:42:22;230.80;2252.80
55329;DHT22;41205;44.264;19.884;2023-11-21T06:44:49;230.80;2252.80
55329;DHT22;41205;44.264;19.884;2023-11-21T06:47:17;230.80;2252.80
55329;DHT22;41205;44.264;19.884;2023-11-21T06:49:43;230.90;2252.80
55329;DHT22;41205;44.264;19.884;2023-11-21T06:52:09;230.90;2252.80
55329;DHT22;41205;44.264;19.884;2023-11-21T06:54:36;230.90;2252.80
55329;DHT22;41205;44.264;19.884;2023-11-21T06:57:02;230.90;2252.80
55329;DHT22;41205;44.264;19.884;2023-11-21T06:59:31;231.00;2252.80
55329;DHT22;41205;44.264;19.884;2023-11-21T07:01:57;231.00;2252.80
55329;DHT22;41205;44.264;19.884;2023-11-21T07:04:22;231.10;2252.80
55329;DHT22;41205;44.264;19.884;2023-11-21T07:06:49;231.20;2252.80
55329;DHT22;41205;44.264;19.884;2023-11-21T07:09:15;231.00;2252.80
55329;DHT22;41205;44.264;19.884;2023-11-21T07:11:41;231.00;2252.80
55329;DHT22;41205;44.264;19.884;2023-11-21T07:14:07;231.30;2252.80
55329;DHT22;41205;44.264;19.884;2023-11-21T07:16:36;256.00;2252.80
55329;DHT22;41205;44.264;19.884;2023-11-21T07:19:05;256.20;2252.80
55329;DHT22;41205;44.264;19.884;2023-11-21T07:21:34;256.20;2252.80
55329;DHT22;41205;44.264;19.884;2023-11-21T07:24:04;256.20;2252.80
55329;DHT22;41205;44.264;19.884;2023-11-21T07:26:31;256.20;2252.80
55329;DHT22;41205;44.264;19.884;2023-11-21T07:28:57;256.20;2252.80
55329;DHT22;41205;44.264;19.884;2023-11-21T07:31:23;256.40;2252.80
55329;DHT22;41205;44.264;19.884;2023-11-21T07:33:49;256.50;2252.80
55329;DHT22;41205;44.264;19.884;2023-11-21T07:36:16;256.40;2252.80
55329;DHT22;41205;44.264;19.884;2023-11-21T07:38:44;256.50;2252.80
55329;DHT22;41205;44.264;19.884;2023-11-21T07:41:10;256.70;2252.80
55329;DHT22;41205;44.264;19.884;2023-11-21T07:43:37;256.50;2252.80
55329;DHT22;41205;44.264;19.884;2023-11-21T07:46:03;256.70;2252.80
55329;DHT22;41205;44.264;19.884;2023-11-21T07:48:30;256.80;2252.80
55329;DHT22;41205;44.264;19.884;2023-11-21T07:50:57;256.70;2252.80
55329;DHT22;41205;44.264;19.884;2023-11-21T07:53:24;256.60;2252.80
55329;DHT22;41205;44.264;19.884;2023-11-21T07:55:51;256.70;2252.80
55329;DHT22;41205;44.264;19.884;2023-11-21T07:58:17;256.90;2252.80
55329;DHT22;41205;44.264;19.884;2023-11-21T08:00:44;256.70;2252.80
55329;DHT22;41205;44.264;19.884;2023-11-21T08:03:09;256.80;2252.80
55329;DHT22;41205;44.264;19.884;2023-11-21T08:05:37;281.60;2278.40
55329;DHT22;41205;44.264;19.884;2023-11-21T08:08:02;256.90;2252.80
55329;DHT22;41205;44.264;19.884;2023-11-21T08:10:28;281.60;2278.40
55329;DHT22;41205;44.264;19.884;2023-11-21T08:12:55;281.70;2278.40
55329;DHT22;41205;44.264;19.884;2023-11-21T08:15:21;281.70;2278.40
55329;DHT22;41205;44.264;19.884;2023-11-21T08:17:47;281.60;2278.40
55329;DHT22;41205;44.264;19.884;2023-11-21T08:20:14;281.60;2278.40
55329;DHT22;41205;44.264;19.884;2023-11-21T08:22:42;281.90;2278.40
55329;DHT22;41205;44.264;19.884;2023-11-21T08:25:08;282.00;2278.40
55329;DHT22;41205;44.264;19.884;2023-11-21T08:27:34;282.10;2278.40
55329;DHT22;41205;44.264;19.884;2023-11-21T08:30:00;282.00;2278.40
55329;DHT22;41205;44.264;19.884;2023-11-21T08:32:26;281.90;2278.40
55329;DHT22;41205;44.264;19.884;2023-11-21T08:34:52;282.10;2278.40
55329;DHT22;41205;44.264;19.884;2023-11-21T08:37:18;282.30;2278.40
55329;DHT22;41205;44.264;19.884;2023-11-21T08:39:44;282.10;2278.40
55329;DHT22;41205;44.264;19.884;2023-11-21T08:42:10;281.70;2278.40
55329;DHT22;41205;44.264;19.884;2023-11-21T08:44:36;256.90;2252.80
55329;DHT22;41205;44.264;19.884;2023-11-21T08:47:01;281.90;2278.40
55329;DHT22;41205;44.264;19.884;2023-11-21T08:49:27;282.00;2278.40
55329;DHT22;41205;44.264;19.884;2023-11-21T08:51:54;282.20;2278.40
55329;DHT22;41205;44.264;19.884;2023-11-21T08:54:25;281.70;2278.40
55329;DHT22;41205;44.264;19.884;2023-11-21T08:56:52;281.60;2278.40
55329;DHT22;41205;44.264;19.884;2023-11-21T08:59:18;281.60;2278.40
55329;DHT22;41205;44.264;19.884;2023-11-21T09:01:45;281.70;2278.40
55329;DHT22;41205;44.264;19.884;2023-11-21T09:04:12;282.10;2278.40
55329;DHT22;41205;44.264;19.884;2023-11-21T09:06:39;282.10;2278.40
55329;DHT22;41205;44.264;19.884;2023-11-21T09:09:05;282.00;2278.40
55329;DHT22;41205;44.264;19.884;2023-11-21T09:11:32;281.80;2278.40
55329;DHT22;41205;44.264;19.884;2023-11-21T09:13:59;256.70;2252.80
55329;DHT22;41205;44.264;19.884;2023-11-21T09:16:25;256.60;2252.80
55329;DHT22;41205;44.264;19.884;2023-11-21T09:18:51;256.50;2252.80
55329;DHT22;41205;44.264;19.884;2023-11-21T09:21:17;256.30;2252.80
55329;DHT22;41205;44.264;19.884;2023-11-21T09:23:44;256.70;2252.80
55329;DHT22;41205;44.264;19.884;2023-11-21T09:26:10;256.70;2252.80
55329;DHT22;41205;44.264;19.884;2023-11-21T09:28:35;281.60;2278.40
55329;DHT22;41205;44.264;19.884;2023-11-21T09:31:06;256.80;2252.80
55329;DHT22;41205;44.264;19.884;2023-11-21T09:33:34;281.60;2278.40
55329;DHT22;41205;44.264;19.884;2023-11-21T09:36:00;256.80;2252.80
55329;DHT22;41205;44.264;19.884;2023-11-21T09:38:26;281.70;2278.40
55329;DHT22;41205;44.264;19.884;2023-11-21T09:40:54;281.60;2278.40
55329;DHT22;41205;44.264;19.884;2023-11-21T09:43:20;281.70;2278.40
55329;DHT22;41205;44.264;19.884;2023-11-21T09:45:52;282.00;2278.40
55329;DHT22;41205;44.264;19.884;2023-11-21T09:48:20;282.10;2278.40
55329;DHT22;41205;44.264;19.884;2023-11-21T09:50:47;282.10;2278.40
55329;DHT22;41205;44.264;19.884;2023-11-21T09:53:20;282.20;2278.40
55329;DHT22;41205;44.264;19.884;2023-11-21T09:55:52;282.20;2278.40
55329;DHT22;41205;44.264;19.884;2023-11-21T09:58:19;282.30;2278.40
55329;DHT22;41205;44.264;19.884;2023-11-21T10:00:46;282.30;2278.40
55329;DHT22;41205;44.264;19.884;2023-11-21T10:03:13;282.10;2278.40
55329;DHT22;41205;44.264;19.884;2023-11-21T10:05:40;282.10;2278.40
55329;DHT22;41205;44.264;19.884;2023-11-21T10:08:08;282.20;2278.40
55329;DHT22;41205;44.264;19.884;2023-11-21T10:10:38;282.20;2278.40
55329;DHT22;41205;44.264;19.884;2023-11-21T10:13:11;282.30;2278.40
55329;DHT22;41205;44.264;19.884;2023-11-21T10:15:38;282.40;2278.40
55329;DHT22;41205;44.264;19.884;2023-11-21T10:18:04;282.50;2278.40
55329;DHT22;41205;44.264;19.884;2023-11-21T10:20:34;307.30;2304.00
55329;DHT22;41205;44.264;19.884;2023-11-21T10:23:03;307.30;2304.00
55329;DHT22;41205;44.264;19.884;2023-11-21T10:25:29;307.30;2304.00
55329;DHT22;41205;44.264;19.884;2023-11-21T10:27:58;307.20;2304.00
55329;DHT22;41205;44.264;19.884;2023-11-21T10:30:32;307.30;2304.00
55329;DHT22;41205;44.264;19.884;2023-11-21T10:33:01;307.30;2304.00
55329;DHT22;41205;44.264;19.884;2023-11-21T10:35:47;307.30;2304.00
55329;DHT22;41205;44.264;19.884;2023-11-21T10:38:19;282.50;2278.40
55329;DHT22;41205;44.264;19.884;2023-11-21T10:40:49;282.10;2278.40
55329;DHT22;41205;44.264;19.884;2023-11-21T10:43:15;281.80;2278.40
55329;DHT22;41205;44.264;19.884;2023-11-21T10:45:42;281.70;2278.40
55329;DHT22;41205;44.264;19.884;2023-11-21T10:48:14;256.80;2252.80
55329;DHT22;41205;44.264;19.884;2023-11-21T10:50:44;256.90;2252.80
55329;DHT22;41205;44.264;19.884;2023-11-21T10:53:10;281.70;2278.40
55329;DHT22;41205;44.264;19.884;2023-11-21T10:55:37;281.90;2278.40
55329;DHT22;41205;44.264;19.884;2023-11-21T10:58:04;281.90;2278.40
55329;DHT22;41205;44.264;19.884;2023-11-21T11:00:34;281.70;2278.40
55329;DHT22;41205;44.264;19.884;2023-11-21T11:03:00;281.60;2278.40
55329;DHT22;41205;44.264;19.884;2023-11-21T11:05:27;256.90;1920.00
55329;DHT22;41205;44.264;19.884;2023-11-21T11:08:05;256.90;2252.80
55329;DHT22;41205;44.264;19.884;2023-11-21T11:10:31;281.60;2278.40
55329;DHT22;41205;44.264;19.884;2023-11-21T11:12:58;281.80;2278.40
55329;DHT22;41205;44.264;19.884;2023-11-21T11:15:28;282.00;2278.40
55329;DHT22;41205;44.264;19.884;2023-11-21T11:17:54;281.70;2278.40
55329;DHT22;41205;44.264;19.884;2023-11-21T11:20:31;281.60;2278.40
55329;DHT22;41205;44.264;19.884;2023-11-21T11:29:13;282.20;2278.40
55329;DHT22;41205;44.264;19.884;2023-11-21T11:34:35;281.60;2278.40
55329;DHT22;41205;44.264;19.884;2023-11-21T11:37:04;256.90;2252.80
55329;DHT22;41205;44.264;19.884;2023-11-21T11:39:41;281.60;2278.40
55329;DHT22;41205;44.264;19.884;2023-11-21T11:42:17;281.90;2278.40
55329;DHT22;41205;44.264;19.884;2023-11-21T11:50:17;282.10;2278.40
55329;DHT22;41205;44.264;19.884;2023-11-21T11:52:46;282.20;2278.40
55329;DHT22;41205;44.264;19.884;2023-11-21T11:55:14;282.40;2278.40
55329;DHT22;41205;44.264;19.884;2023-11-21T11:57:42;282.50;2278.40
55329;DHT22;41205;44.264;19.884;2023-11-21T12:00:14;282.50;2278.40
55329;DHT22;41205;44.264;19.884;2023-11-21T12:02:57;282.40;2278.40
55329;DHT22;41205;44.264;19.884;2023-11-21T12:05:25;282.30;2278.40
55329;DHT22;41205;44.264;19.884;2023-11-21T12:07:59;282.30;2278.40
55329;DHT22;41205;44.264;19.884;2023-11-21T12:10:30;282.30;2278.40
55329;DHT22;41205;44.264;19.884;2023-11-21T12:12:58;282.20;2124.80
55329;DHT22;41205;44.264;19.884;2023-11-21T12:15:24;282.20;2073.60
55329;DHT22;41205;44.264;19.884;2023-11-21T12:17:52;282.10;2278.40
55329;DHT22;41205;44.264;19.884;2023-11-21T12:20:23;282.10;2278.40
55329;DHT22;41205;44.264;19.884;2023-11-21T12:22:53;282.30;2278.40
55329;DHT22;41205;44.264;19.884;2023-11-21T12:25:24;282.50;2278.40
55329;DHT22;41205;44.264;19.884;2023-11-21T12:27:52;307.20;2304.00
55329;DHT22;41205;44.264;19.884;2023-11-21T12:30:22;307.20;2304.00
55329;DHT22;41205;44.264;19.884;2023-11-21T12:32:53;282.50;2278.40
55329;DHT22;41205;44.264;19.884;2023-11-21T12:35:20;282.50;2278.40
55329;DHT22;41205;44.264;19.884;2023-11-21T12:37:47;282.50;2278.40
55329;DHT22;41205;44.264;19.884;2023-11-21T12:40:14;282.50;2278.40
55329;DHT22;41205;44.264;19.884;2023-11-21T12:42:45;282.30;2252.80
55329;DHT22;41205;44.264;19.884;2023-11-21T12:47:44;282.30;2278.40
55329;DHT22;41205;44.264;19.884;2023-11-21T12:50:22;282.20;2278.40
55329;DHT22;41205;44.264;19.884;2023-11-21T12:52:53;282.30;2278.40
55329;DHT22;41205;44.264;19.884;2023-11-21T12:55:22;282.40;2278.40
55329;DHT22;41205;44.264;19.884;2023-11-21T12:57:55;282.20;2278.40
55329;DHT22;41205;44.264;19.884;2023-11-21T13:00:35;282.20;2278.40
55329;DHT22;41205;44.264;19.884;2023-11-21T13:03:07;282.00;2278.40
55329;DHT22;41205;44.264;19.884;2023-11-21T13:05:40;281.90;2278.40
55329;DHT22;41205;44.264;19.884;2023-11-21T13:08:11;282.00;2278.40
55329;DHT22;41205;44.264;19.884;2023-11-21T13:10:43;282.10;2278.40
55329;DHT22;41205;44.264;19.884;2023-11-21T13:13:11;282.10;2278.40
55329;DHT22;41205;44.264;19.884;2023-11-21T13:15:51;282.10;2278.40
55329;DHT22;41205;44.264;19.884;2023-11-21T13:18:18;282.10;2278.40
55329;DHT22;41205;44.264;19.884;2023-11-21T13:20:44;282.10;2278.40
55329;DHT22;41205;44.264;19.884;2023-11-21T13:23:11;282.20;2278.40
55329;DHT22;41205;44.264;19.884;2023-11-21T13:25:42;282.00;2278.40
55329;DHT22;41205;44.264;19.884;2023-11-21T13:28:08;281.90;2278.40
55329;DHT22;41205;44.264;19.884;2023-11-21T13:30:35;281.90;2278.40
55329;DHT22;41205;44.264;19.884;2023-11-21T13:33:01;281.90;2278.40
55329;DHT22;41205;44.264;19.884;2023-11-21T13:35:30;282.00;2278.40
55329;DHT22;41205;44.264;19.884;2023-11-21T13:38:05;282.00;2278.40
55329;DHT22;41205;44.264;19.884;2023-11-21T13:40:32;282.10;2278.40
55329;DHT22;41205;44.264;19.884;2023-11-21T13:43:00;282.00;2278.40
55329;DHT22;41205;44.264;19.884;2023-11-21T13:45:29;282.00;2278.40
55329;DHT22;41205;44.264;19.884;2023-11-21T13:47:56;282.00;2278.40
55329;DHT22;41205;44.264;19.884;2023-11-21T13:50:25;281.90;2278.40
55329;DHT22;41205;44.264;19.884;2023-11-21T13:52:59;281.90;2278.40
55329;DHT22;41205;44.264;19.884;2023-11-21T14:09:44;256.80;2252.80
55329;DHT22;41205;44.264;19.884;2023-11-21T14:12:10;256.70;2252.80
55329;DHT22;41205;44.264;19.884;2023-11-21T14:14:38;256.70;2252.80
55329;DHT22;41205;44.264;19.884;2023-11-21T14:17:06;256.50;2252.80
55329;DHT22;41205;44.264;19.884;2023-11-21T14:19:32;256.50;2252.80
55329;DHT22;41205;44.264;19.884;2023-11-21T14:22:00;256.50;2252.80
55329;DHT22;41205;44.264;19.884;2023-11-21T14:24:26;256.50;2252.80
55329;DHT22;41205;44.264;19.884;2023-11-21T14:26:51;256.20;2252.80
55329;DHT22;41205;44.264;19.884;2023-11-21T14:29:19;256.20;2252.80
55329;DHT22;41205;44.264;19.884;2023-11-21T14:31:49;256.20;2252.80
55329;DHT22;41205;44.264;19.884;2023-11-21T14:34:17;256.30;2252.80
55329;DHT22;41205;44.264;19.884;2023-11-21T14:36:43;256.20;2252.80
55329;DHT22;41205;44.264;19.884;2023-11-21T14:39:10;256.30;2252.80
55329;DHT22;41205;44.264;19.884;2023-11-21T14:41:49;256.40;2252.80
55329;DHT22;41205;44.264;19.884;2023-11-21T14:44:14;256.30;2252.80
55329;DHT22;41205;44.264;19.884;2023-11-21T14:46:41;256.10;2252.80
55329;DHT22;41205;44.264;19.884;2023-11-21T14:49:12;256.00;2252.80
55329;DHT22;41205;44.264;19.884;2023-11-21T14:51:51;231.30;2252.80
55329;DHT22;41205;44.264;19.884;2023-11-21T14:54:33;231.30;2252.80
55329;DHT22;41205;44.264;19.884;2023-11-21T14:57:08;231.20;2252.80
55329;DHT22;41205;44.264;19.884;2023-11-21T14:59:44;231.20;2252.80
55329;DHT22;41205;44.264;19.884;2023-11-21T15:02:17;231.00;2252.80
55329;DHT22;41205;44.264;19.884;2023-11-21T15:04:47;231.10;2252.80
55329;DHT22;41205;44.264;19.884;2023-11-21T15:07:14;231.00;2252.80
55329;DHT22;41205;44.264;19.884;2023-11-21T15:09:40;230.90;2252.80